createdAt,value
2023-04-22T00:00:32.051Z,24.06
2023-04-22T00:01:32.090Z,24.06
2023-04-22T00:02:32.355Z,24.06
2023-04-22T00:03:32.332Z,24.06
2023-04-22T00:04:32.352Z,24.06
2023-04-22T00:05:32.262Z,24.06
2023-04-22T00:06:32.292Z,24.06
2023-04-22T00:07:32.313Z,24.06
2023-04-22T00:08:32.357Z,24.06
2023-04-22T00:09:32.581Z,24.06
2023-04-22T00:10:32.404Z,24.06
2023-04-22T00:11:32.444Z,24.06
2023-04-22T00:12:32.481Z,24.06
2023-04-22T00:13:32.509Z,24.05
2023-04-22T00:14:32.557Z,24.05
2023-04-22T00:15:32.601Z,24.05
2023-04-22T00:16:32.677Z,24.06
2023-04-22T00:17:32.713Z,24.06
2023-04-22T00:18:32.739Z,24.06
2023-04-22T00:19:32.767Z,24.05
2023-04-22T00:20:32.835Z,24.06
2023-04-22T00:21:32.880Z,24.05
2023-04-22T00:22:32.934Z,24.06
2023-04-22T00:23:32.978Z,24.06
2023-04-22T00:24:33.001Z,24.05
2023-04-22T00:25:33.066Z,24.06
2023-04-22T00:26:33.120Z,24.06
2023-04-22T00:27:33.137Z,24.07
2023-04-22T00:28:33.177Z,24.06
2023-04-22T00:29:33.191Z,24.05
2023-04-22T00:30:33.235Z,24.05
2023-04-22T00:31:33.286Z,24.05
2023-04-22T00:32:33.328Z,24.05
2023-04-22T00:33:33.317Z,24.05
2023-04-22T00:34:33.337Z,24.06
2023-04-22T00:35:33.505Z,24.05
2023-04-22T00:36:33.428Z,24.06
2023-04-22T00:37:33.492Z,24.06
2023-04-22T00:38:33.508Z,24.06
2023-04-22T00:39:33.561Z,24.05
2023-04-22T00:40:33.607Z,24.05
2023-04-22T00:41:33.732Z,24.06
2023-04-22T00:42:33.792Z,24.06
2023-04-22T00:43:33.865Z,24.05
2023-04-22T00:44:33.738Z,24.06
2023-04-22T00:45:33.742Z,24.05
2023-04-22T00:46:33.849Z,24.06
2023-04-22T00:47:33.834Z,24.06
2023-04-22T00:48:33.870Z,24.06
2023-04-22T00:49:33.893Z,24.05
2023-04-22T00:50:34.000Z,24.06
2023-04-22T00:51:34.014Z,24.06
2023-04-22T00:52:34.013Z,24.06
2023-04-22T00:53:34.098Z,24.05
2023-04-22T00:54:34.106Z,24.05
2023-04-22T00:55:34.145Z,24.05
2023-04-22T00:56:34.170Z,24.06
2023-04-22T00:57:34.281Z,24.05
2023-04-22T00:58:34.262Z,24.05
2023-04-22T00:59:34.269Z,24.06
2023-04-22T01:00:34.334Z,24.05
2023-04-22T01:01:34.596Z,24.06
2023-04-22T01:02:34.581Z,24.06
2023-04-22T01:03:34.529Z,24.06
2023-04-22T01:04:34.444Z,24.07
2023-04-22T01:05:34.504Z,24.06
2023-04-22T01:06:34.523Z,24.06
2023-04-22T01:07:34.561Z,24.06
2023-04-22T01:08:34.644Z,24.06
2023-04-22T01:09:34.670Z,24.06
2023-04-22T01:10:34.712Z,24.05
2023-04-22T01:11:34.780Z,24.06
2023-04-22T01:12:34.813Z,24.05
2023-04-22T01:13:34.848Z,24.06
2023-04-22T01:14:34.869Z,24.06
2023-04-22T01:15:34.899Z,24.06
2023-04-22T01:16:34.964Z,24.05
2023-04-22T01:17:35.010Z,24.06
2023-04-22T01:18:35.022Z,24.07
2023-04-22T01:19:35.067Z,24.07
2023-04-22T01:20:35.072Z,24.06
2023-04-22T01:21:35.095Z,24.06
2023-04-22T01:22:35.137Z,24.06
2023-04-22T01:23:35.189Z,24.06
2023-04-22T01:24:35.199Z,24.06
2023-04-22T01:25:35.227Z,24.06
2023-04-22T01:26:35.336Z,24.05
2023-04-22T01:27:35.293Z,24.05
2023-04-22T01:28:35.338Z,24.06
2023-04-22T01:29:35.373Z,24.06
2023-04-22T01:30:35.415Z,24.06
2023-04-22T01:31:35.511Z,24.05
2023-04-22T01:32:35.492Z,24.05
2023-04-22T01:33:35.524Z,24.06
2023-04-22T01:34:35.568Z,24.06
2023-04-22T01:35:35.609Z,24.05
2023-04-22T01:36:35.636Z,24.05
2023-04-22T01:37:35.653Z,24.06
2023-04-22T01:38:35.683Z,24.05
2023-04-22T01:39:35.702Z,24.05
2023-04-22T01:40:35.721Z,24.05
2023-04-22T01:41:35.733Z,24.05
2023-04-22T01:42:35.770Z,24.05
2023-04-22T01:43:35.818Z,24.05
2023-04-22T01:44:35.847Z,24.05
2023-04-22T01:45:35.964Z,24.05
2023-04-22T01:46:35.959Z,24.05
2023-04-22T01:47:36.011Z,24.05
2023-04-22T01:48:36.022Z,24.05
2023-04-22T01:49:36.035Z,24.06
2023-04-22T01:50:36.047Z,24.05
2023-04-22T01:51:36.072Z,24.05
2023-04-22T01:52:36.073Z,24.05
2023-04-22T01:53:36.111Z,24.05
2023-04-22T01:54:36.158Z,24.06
2023-04-22T01:55:36.284Z,24.05
2023-04-22T01:56:36.231Z,24.05
2023-04-22T01:57:36.247Z,24.06
2023-04-22T01:58:36.306Z,24.06
2023-04-22T01:59:36.352Z,24.06
2023-04-22T02:00:36.392Z,24.06
2023-04-22T02:01:36.493Z,24.06
2023-04-22T02:02:36.615Z,24.06
2023-04-22T02:03:36.611Z,24.06
2023-04-22T02:04:36.690Z,24.05
2023-04-22T02:05:36.606Z,24.05
2023-04-22T02:06:36.643Z,24.06
2023-04-22T02:07:36.657Z,24.06
2023-04-22T02:08:36.718Z,24.06
2023-04-22T02:09:37.002Z,24.05
2023-04-22T02:10:36.795Z,24.06
2023-04-22T02:11:36.841Z,24.06
2023-04-22T02:12:36.869Z,24.05
2023-04-22T02:13:36.914Z,24.06
2023-04-22T02:14:36.974Z,24.05
2023-04-22T02:15:37.061Z,24.05
2023-04-22T02:16:37.048Z,24.04
2023-04-22T02:17:37.059Z,24.05
2023-04-22T02:18:37.220Z,24.04
2023-04-22T02:19:37.428Z,24.04
2023-04-22T02:20:37.118Z,24.04
2023-04-22T02:21:37.130Z,24.04
2023-04-22T02:22:37.196Z,24.04
2023-04-22T02:23:37.248Z,24.04
2023-04-22T02:24:37.250Z,24.04
2023-04-22T02:25:37.314Z,24.05
2023-04-22T02:26:37.354Z,24.04
2023-04-22T02:27:37.416Z,24.05
2023-04-22T02:28:37.535Z,24.05
2023-04-22T02:29:37.787Z,24.05
2023-04-22T02:30:37.520Z,24.05
2023-04-22T02:31:37.635Z,24.05
2023-04-22T02:32:37.703Z,24.05
2023-04-22T02:33:37.723Z,24.04
2023-04-22T02:34:37.683Z,24.05
2023-04-22T02:35:37.707Z,24.05
2023-04-22T02:36:37.728Z,24.05
2023-04-22T02:37:37.782Z,24.05
2023-04-22T02:38:37.830Z,24.05
2023-04-22T02:39:38.112Z,24.04
2023-04-22T02:40:37.882Z,24.05
2023-04-22T02:41:37.929Z,24.05
2023-04-22T02:42:37.985Z,24.05
2023-04-22T02:43:38.026Z,24.05
2023-04-22T02:44:38.006Z,24.05
2023-04-22T02:45:38.034Z,24.05
2023-04-22T02:46:38.111Z,24.05
2023-04-22T02:47:38.216Z,24.05
2023-04-22T02:48:38.168Z,24.05
2023-04-22T02:49:38.304Z,24.05
2023-04-22T02:50:38.243Z,24.04
2023-04-22T02:51:38.275Z,24.05
2023-04-22T02:52:38.323Z,24.05
2023-04-22T02:53:38.381Z,24.04
2023-04-22T02:54:38.548Z,24.05
2023-04-22T02:55:38.489Z,24.04
2023-04-22T02:56:38.536Z,24.05
2023-04-22T02:57:38.572Z,24.05
2023-04-22T02:58:38.659Z,24.05
2023-04-22T02:59:38.820Z,24.05
2023-04-22T03:00:38.755Z,24.05
2023-04-22T03:01:38.705Z,24.05
2023-04-22T03:02:39.072Z,24.05
2023-04-22T03:03:38.895Z,24.05
2023-04-22T03:04:38.933Z,24.05
2023-04-22T03:05:38.871Z,24.04
2023-04-22T03:06:38.919Z,24.05
2023-04-22T03:07:38.966Z,24.05
2023-04-22T03:08:38.997Z,24.04
2023-04-22T03:09:39.227Z,24.05
2023-04-22T03:10:39.076Z,24.05
2023-04-22T03:11:39.158Z,24.06
2023-04-22T03:12:39.142Z,24.05
2023-04-22T03:13:39.157Z,24.06
2023-04-22T03:14:39.198Z,24.05
2023-04-22T03:15:39.253Z,24.05
2023-04-22T03:16:39.376Z,24.05
2023-04-22T03:17:39.363Z,24.05
2023-04-22T03:18:39.348Z,24.05
2023-04-22T03:19:39.699Z,24.04
2023-04-22T03:20:39.448Z,24.05
2023-04-22T03:21:39.443Z,24.05
2023-04-22T03:22:39.488Z,24.04
2023-04-22T03:23:39.541Z,24.04
2023-04-22T03:24:39.571Z,24.05
2023-04-22T03:25:39.667Z,24.05
2023-04-22T03:26:39.662Z,24.05
2023-04-22T03:27:39.688Z,24.05
2023-04-22T03:28:39.712Z,24.05
2023-04-22T03:29:39.910Z,24.04
2023-04-22T03:30:39.786Z,24.04
2023-04-22T03:31:39.940Z,24.04
2023-04-22T03:32:39.931Z,24.04
2023-04-22T03:33:39.906Z,24.04
2023-04-22T03:34:39.922Z,24.04
2023-04-22T03:35:40.001Z,24.04
2023-04-22T03:36:40.052Z,24.06
2023-04-22T03:37:40.095Z,24.05
2023-04-22T03:38:40.166Z,24.06
2023-04-22T03:39:40.318Z,24.04
2023-04-22T03:40:40.207Z,24.04
2023-04-22T03:41:40.258Z,24.05
2023-04-22T03:42:40.313Z,24.05
2023-04-22T03:43:40.344Z,24.05
2023-04-22T03:44:40.352Z,24.05
2023-04-22T03:45:40.439Z,24.05
2023-04-22T03:46:40.447Z,24.06
2023-04-22T03:47:40.545Z,24.04
2023-04-22T03:48:40.520Z,24.05
2023-04-22T03:49:40.912Z,24.05
2023-04-22T03:50:40.605Z,24.05
2023-04-22T03:51:40.639Z,24.04
2023-04-22T03:52:40.648Z,24.04
2023-04-22T03:53:40.760Z,24.04
2023-04-22T03:54:40.729Z,24.04
2023-04-22T03:55:40.784Z,24.05
2023-04-22T03:56:40.917Z,24.04
2023-04-22T03:57:41.003Z,24.03
2023-04-22T03:58:40.925Z,24.04
2023-04-22T03:59:41.492Z,24.04
2023-04-22T04:00:41.003Z,24.04
2023-04-22T04:01:41.020Z,24.04
2023-04-22T04:02:41.202Z,24.04
2023-04-22T04:03:41.302Z,24.04
2023-04-22T04:04:41.260Z,24.04
2023-04-22T04:05:41.260Z,24.04
2023-04-22T04:06:41.199Z,24.04
2023-04-22T04:07:41.201Z,24.04
2023-04-22T04:08:41.230Z,24.04
2023-04-22T04:09:41.649Z,24.04
2023-04-22T04:10:41.361Z,24.04
2023-04-22T04:11:41.425Z,24.03
2023-04-22T04:12:42.177Z,24.04
2023-04-22T04:13:41.465Z,24.04
2023-04-22T04:14:41.478Z,24.03
2023-04-22T04:15:41.551Z,24.03
2023-04-22T04:16:41.576Z,24.04
2023-04-22T04:17:41.688Z,24.04
2023-04-22T04:18:41.635Z,24.03
2023-04-22T04:19:41.984Z,24.03
2023-04-22T04:20:41.709Z,24.04
2023-04-22T04:21:41.741Z,24.03
2023-04-22T04:22:41.754Z,24.04
2023-04-22T04:23:41.910Z,24.05
2023-04-22T04:24:41.825Z,24.05
2023-04-22T04:25:41.823Z,24.04
2023-04-22T04:26:41.881Z,24.04
2023-04-22T04:27:41.940Z,24.05
2023-04-22T04:28:41.973Z,24.04
2023-04-22T04:29:42.277Z,24.04
2023-04-22T04:30:42.032Z,24.03
2023-04-22T04:31:42.207Z,24.03
2023-04-22T04:32:42.142Z,24.03
2023-04-22T04:33:42.143Z,24.03
2023-04-22T04:34:42.202Z,24.03
2023-04-22T04:35:42.264Z,24.03
2023-04-22T04:36:42.295Z,24.03
2023-04-22T04:37:42.322Z,24.04
2023-04-22T04:38:42.364Z,24.04
2023-04-22T04:39:42.721Z,24.04
2023-04-22T04:40:42.459Z,24.04
2023-04-22T04:41:42.486Z,24.04
2023-04-22T04:42:42.577Z,24.04
2023-04-22T04:43:42.560Z,24.05
2023-04-22T04:44:42.633Z,24.05
2023-04-22T04:45:42.721Z,24.05
2023-04-22T04:46:42.832Z,24.04
2023-04-22T04:47:42.840Z,24.04
2023-04-22T04:48:42.797Z,24.05
2023-04-22T04:49:43.006Z,24.05
2023-04-22T04:50:42.878Z,24.06
2023-04-22T04:51:42.876Z,24.06
2023-04-22T04:52:42.910Z,24.07
2023-04-22T04:53:42.969Z,24.06
2023-04-22T04:54:43.019Z,24.06
2023-04-22T04:55:43.047Z,24.06
2023-04-22T04:56:43.054Z,24.06
2023-04-22T04:57:43.130Z,24.06
2023-04-22T04:58:43.116Z,24.07
2023-04-22T04:59:43.201Z,24.08
2023-04-22T05:00:43.201Z,24.08
2023-04-22T05:01:43.353Z,24.09
2023-04-22T05:02:43.418Z,24.11
2023-04-22T05:03:43.525Z,24.11
2023-04-22T05:04:43.660Z,24.12
2023-04-22T05:05:43.389Z,24.12
2023-04-22T05:06:43.412Z,24.14
2023-04-22T05:07:43.444Z,24.16
2023-04-22T05:08:43.514Z,24.19
2023-04-22T05:09:43.515Z,24.21
2023-04-22T05:10:43.496Z,24.24
2023-04-22T05:11:43.529Z,24.28
2023-04-22T05:12:43.569Z,24.31
2023-04-22T05:13:43.624Z,24.34
2023-04-22T05:14:43.630Z,24.37
2023-04-22T05:15:43.655Z,24.40
2023-04-22T05:16:43.747Z,24.43
2023-04-22T05:17:43.731Z,24.46
2023-04-22T05:18:43.692Z,24.49
2023-04-22T05:19:43.700Z,24.51
2023-04-22T05:20:43.681Z,24.54
2023-04-22T05:21:43.720Z,24.56
2023-04-22T05:22:43.740Z,24.59
2023-04-22T05:23:43.737Z,24.61
2023-04-22T05:24:43.771Z,24.64
2023-04-22T05:25:43.777Z,24.67
2023-04-22T05:26:43.801Z,24.69
2023-04-22T05:27:43.851Z,24.71
2023-04-22T05:28:43.891Z,24.74
2023-04-22T05:29:43.909Z,24.77
2023-04-22T05:30:43.962Z,24.79
2023-04-22T05:31:44.007Z,24.81
2023-04-22T05:32:44.059Z,24.84
2023-04-22T05:33:44.076Z,24.86
2023-04-22T05:34:44.082Z,24.89
2023-04-22T05:35:44.105Z,24.91
2023-04-22T05:36:44.111Z,24.92
2023-04-22T05:37:44.150Z,24.93
2023-04-22T05:38:44.190Z,24.94
2023-04-22T05:39:44.182Z,24.95
2023-04-22T05:40:44.222Z,24.97
2023-04-22T05:41:46.851Z,24.99
2023-04-22T05:42:44.236Z,25.02
2023-04-22T05:43:44.253Z,25.03
2023-04-22T05:44:44.239Z,25.05
2023-04-22T05:45:44.282Z,25.08
2023-04-22T05:46:44.244Z,25.10
2023-04-22T05:47:44.238Z,25.12
2023-04-22T05:48:44.208Z,25.14
2023-04-22T05:49:44.190Z,25.16
2023-04-22T05:50:44.188Z,25.17
2023-04-22T05:51:44.179Z,25.19
2023-04-22T05:52:44.172Z,25.19
2023-04-22T05:53:44.169Z,25.20
2023-04-22T05:54:44.141Z,25.20
2023-04-22T05:55:44.150Z,25.21
2023-04-22T05:56:44.145Z,25.21
2023-04-22T05:57:44.119Z,25.21
2023-04-22T05:58:44.131Z,25.21
2023-04-22T05:59:44.117Z,25.21
2023-04-22T06:00:44.096Z,25.21
2023-04-22T06:01:44.115Z,25.20
2023-04-22T06:02:44.175Z,25.20
2023-04-22T06:03:44.317Z,25.19
2023-04-22T06:04:44.357Z,25.20
2023-04-22T06:05:44.100Z,25.19
2023-04-22T06:06:44.068Z,25.19
2023-04-22T06:07:44.066Z,25.20
2023-04-22T06:08:44.045Z,25.21
2023-04-22T06:09:44.040Z,25.23
2023-04-22T06:10:44.035Z,25.24
2023-04-22T06:11:44.029Z,25.27
2023-04-22T06:12:44.003Z,25.27
2023-04-22T06:13:44.027Z,25.30
2023-04-22T06:14:44.011Z,25.31
2023-04-22T06:15:44.037Z,25.33
2023-04-22T06:16:43.979Z,25.35
2023-04-22T06:17:43.988Z,25.37
2023-04-22T06:18:44.023Z,25.39
2023-04-22T06:19:43.963Z,25.41
2023-04-22T06:20:43.988Z,25.42
2023-04-22T06:21:43.946Z,25.45
2023-04-22T06:22:43.946Z,25.47
2023-04-22T06:23:43.937Z,25.49
2023-04-22T06:24:44.794Z,25.52
2023-04-22T06:25:43.929Z,25.54
2023-04-22T06:26:43.938Z,25.57
2023-04-22T06:27:43.908Z,25.60
2023-04-22T06:28:43.942Z,25.62
2023-04-22T06:29:43.976Z,25.64
2023-04-22T06:30:44.000Z,25.67
2023-04-22T06:31:44.087Z,25.69
2023-04-22T06:32:44.089Z,25.71
2023-04-22T06:33:44.133Z,25.74
2023-04-22T06:34:44.131Z,25.76
2023-04-22T06:35:44.197Z,25.78
2023-04-22T06:36:44.236Z,25.79
2023-04-22T06:37:44.252Z,25.78
2023-04-22T06:38:44.286Z,25.79
2023-04-22T06:39:44.303Z,25.80
2023-04-22T06:40:44.322Z,25.82
2023-04-22T06:41:44.743Z,25.84
2023-04-22T06:42:44.342Z,25.86
2023-04-22T06:43:44.378Z,25.87
2023-04-22T06:44:44.436Z,25.89
2023-04-22T06:45:44.415Z,25.91
2023-04-22T06:46:44.488Z,25.92
2023-04-22T06:47:44.465Z,25.94
2023-04-22T06:48:44.447Z,25.96
2023-04-22T06:49:44.423Z,25.97
2023-04-22T06:50:44.450Z,26.00
2023-04-22T06:51:44.466Z,26.02
2023-04-22T06:52:44.537Z,26.04
2023-04-22T06:53:44.579Z,26.05
2023-04-22T06:54:44.578Z,26.07
2023-04-22T06:55:44.590Z,26.07
2023-04-22T06:56:44.597Z,26.08
2023-04-22T06:57:44.625Z,26.09
2023-04-22T06:58:44.636Z,26.12
2023-04-22T06:59:46.721Z,26.15
2023-04-22T07:00:44.705Z,26.18
2023-04-22T07:01:44.780Z,26.21
2023-04-22T07:02:44.791Z,26.23
2023-04-22T07:03:44.893Z,26.25
2023-04-22T07:04:44.842Z,26.28
2023-04-22T07:05:44.811Z,26.30
2023-04-22T07:06:44.824Z,26.32
2023-04-22T07:07:44.814Z,26.34
2023-04-22T07:08:44.830Z,26.36
2023-04-22T07:09:44.867Z,26.38
2023-04-22T07:10:44.876Z,26.39
2023-04-22T07:11:44.881Z,26.39
2023-04-22T07:12:44.905Z,26.41
2023-04-22T07:13:44.902Z,26.42
2023-04-22T07:14:44.940Z,26.43
2023-04-22T07:15:44.977Z,26.46
2023-04-22T07:16:45.056Z,26.47
2023-04-22T07:17:45.008Z,26.49
2023-04-22T07:18:45.016Z,26.50
2023-04-22T07:19:44.995Z,26.51
2023-04-22T07:20:45.011Z,26.52
2023-04-22T07:21:45.057Z,26.54
2023-04-22T07:22:45.040Z,26.54
2023-04-22T07:23:45.092Z,26.55
2023-04-22T07:24:45.081Z,26.56
2023-04-22T07:25:45.123Z,26.56
2023-04-22T07:26:45.144Z,26.56
2023-04-22T07:27:45.177Z,26.58
2023-04-22T07:28:45.167Z,26.59
2023-04-22T07:29:45.191Z,26.59
2023-04-22T07:30:45.262Z,26.58
2023-04-22T07:31:45.297Z,26.57
2023-04-22T07:32:46.905Z,26.58
2023-04-22T07:33:45.308Z,26.61
2023-04-22T07:34:45.331Z,26.62
2023-04-22T07:35:45.304Z,26.64
2023-04-22T07:36:45.313Z,26.65
2023-04-22T07:37:45.290Z,26.66
2023-04-22T07:38:45.272Z,26.68
2023-04-22T07:39:45.272Z,26.69
2023-04-22T07:40:45.282Z,26.71
2023-04-22T07:41:45.261Z,26.72
2023-04-22T07:42:46.327Z,26.73
2023-04-22T07:43:45.248Z,26.75
2023-04-22T07:44:45.237Z,26.76
2023-04-22T07:45:45.274Z,26.77
2023-04-22T07:46:45.232Z,26.80
2023-04-22T07:47:45.244Z,26.82
2023-04-22T07:48:45.204Z,26.84
2023-04-22T07:49:45.193Z,26.85
2023-04-22T07:50:45.203Z,26.86
2023-04-22T07:51:45.200Z,26.88
2023-04-22T07:52:45.201Z,26.89
2023-04-22T07:53:45.161Z,26.90
2023-04-22T07:54:45.170Z,26.90
2023-04-22T07:55:45.152Z,26.92
2023-04-22T07:56:45.163Z,26.93
2023-04-22T07:57:45.161Z,26.95
2023-04-22T07:58:45.144Z,26.95
2023-04-22T07:59:45.130Z,26.96
2023-04-22T08:00:45.160Z,26.98
2023-04-22T08:01:45.115Z,27.00
2023-04-22T08:02:45.203Z,27.01
2023-04-22T08:03:45.306Z,27.03
2023-04-22T08:04:45.160Z,27.03
2023-04-22T08:05:45.096Z,27.04
2023-04-22T08:06:45.085Z,27.06
2023-04-22T08:07:45.141Z,27.06
2023-04-22T08:08:45.135Z,27.07
2023-04-22T08:09:45.045Z,27.09
2023-04-22T08:10:45.062Z,27.09
2023-04-22T08:11:45.054Z,27.10
2023-04-22T08:12:45.040Z,27.12
2023-04-22T08:13:45.030Z,27.15
2023-04-22T08:14:45.031Z,27.15
2023-04-22T08:15:45.047Z,27.17
2023-04-22T08:16:44.995Z,27.18
2023-04-22T08:17:45.082Z,27.19
2023-04-22T08:18:45.040Z,27.19
2023-04-22T08:19:45.067Z,27.21
2023-04-22T08:20:45.070Z,27.23
2023-04-22T08:21:45.056Z,27.24
2023-04-22T08:22:45.127Z,27.25
2023-04-22T08:23:45.160Z,27.25
2023-04-22T08:24:45.212Z,27.25
2023-04-22T08:25:45.231Z,27.28
2023-04-22T08:26:45.281Z,27.29
2023-04-22T08:27:45.308Z,27.29
2023-04-22T08:28:45.335Z,27.30
2023-04-22T08:29:45.338Z,27.31
2023-04-22T08:30:45.434Z,27.32
2023-04-22T08:31:45.846Z,27.32
2023-04-22T08:32:45.525Z,27.33
2023-04-22T08:33:45.490Z,27.34
2023-04-22T08:34:46.571Z,27.34
2023-04-22T08:35:45.590Z,27.35
2023-04-22T08:36:45.621Z,27.36
2023-04-22T08:37:45.631Z,27.37
2023-04-22T08:38:45.937Z,27.38
2023-04-22T08:39:45.717Z,27.38
2023-04-22T08:40:45.756Z,27.40
2023-04-22T08:41:45.789Z,27.40
2023-04-22T08:42:45.819Z,27.41
2023-04-22T08:43:45.841Z,27.41
2023-04-22T08:44:45.871Z,27.42
2023-04-22T08:45:45.915Z,27.42
2023-04-22T08:46:45.972Z,27.43
2023-04-22T08:47:45.975Z,27.43
2023-04-22T08:48:46.004Z,27.43
2023-04-22T08:49:46.029Z,27.44
2023-04-22T08:50:46.086Z,27.45
2023-04-22T08:51:46.098Z,27.47
2023-04-22T08:52:46.096Z,27.48
2023-04-22T08:53:46.116Z,27.49
2023-04-22T08:54:46.176Z,27.51
2023-04-22T08:55:46.161Z,27.51
2023-04-22T08:56:46.201Z,27.51
2023-04-22T08:57:46.218Z,27.52
2023-04-22T08:58:46.229Z,27.53
2023-04-22T08:59:46.272Z,27.54
2023-04-22T09:00:46.531Z,27.53
2023-04-22T09:01:46.362Z,27.54
2023-04-22T09:02:46.390Z,27.54
2023-04-22T09:03:46.478Z,27.53
2023-04-22T09:04:46.401Z,27.54
2023-04-22T09:05:46.427Z,27.54
2023-04-22T09:06:46.439Z,27.55
2023-04-22T09:07:46.456Z,27.55
2023-04-22T09:08:46.487Z,27.55
2023-04-22T09:09:46.513Z,27.56
2023-04-22T09:10:46.517Z,27.57
2023-04-22T09:11:46.564Z,27.57
2023-04-22T09:12:46.558Z,27.58
2023-04-22T09:13:46.592Z,27.59
2023-04-22T09:14:46.627Z,27.59
2023-04-22T09:15:46.632Z,27.60
2023-04-22T09:16:46.677Z,27.61
2023-04-22T09:17:46.704Z,27.62
2023-04-22T09:18:46.701Z,27.64
2023-04-22T09:19:46.685Z,27.66
2023-04-22T09:20:46.710Z,27.68
2023-04-22T09:21:49.115Z,27.68
2023-04-22T09:22:46.753Z,27.68
2023-04-22T09:23:46.725Z,27.69
2023-04-22T09:24:46.714Z,27.70
2023-04-22T09:25:46.713Z,27.72
2023-04-22T09:26:46.708Z,27.72
2023-04-22T09:27:48.052Z,27.72
2023-04-22T09:28:46.702Z,27.74
2023-04-22T09:29:46.681Z,27.74
2023-04-22T09:30:46.689Z,27.74
2023-04-22T09:31:46.683Z,27.76
2023-04-22T09:32:46.739Z,27.77
2023-04-22T09:33:47.726Z,27.78
2023-04-22T09:34:46.668Z,27.79
2023-04-22T09:35:46.668Z,27.79
2023-04-22T09:36:46.641Z,27.81
2023-04-22T09:37:49.592Z,27.81
2023-04-22T09:38:46.632Z,27.80
2023-04-22T09:39:47.679Z,27.81
2023-04-22T09:40:46.626Z,27.81
2023-04-22T09:41:46.622Z,27.80
2023-04-22T09:42:46.599Z,27.81
2023-04-22T09:43:46.601Z,27.81
2023-04-22T09:44:46.575Z,27.82
2023-04-22T09:45:46.616Z,27.81
2023-04-22T09:46:46.564Z,27.81
2023-04-22T09:47:46.606Z,27.81
2023-04-22T09:48:46.560Z,27.80
2023-04-22T09:49:46.586Z,27.80
2023-04-22T09:50:46.596Z,27.81
2023-04-22T09:51:47.671Z,27.81
2023-04-22T09:52:46.615Z,27.82
2023-04-22T09:53:46.602Z,27.82
2023-04-22T09:54:46.597Z,27.81
2023-04-22T09:55:46.609Z,27.81
2023-04-22T09:56:46.606Z,27.82
2023-04-22T09:57:46.569Z,27.82
2023-04-22T09:58:46.584Z,27.82
2023-04-22T09:59:46.563Z,27.82
2023-04-22T10:00:46.565Z,27.83
2023-04-22T10:01:46.777Z,27.82
2023-04-22T10:02:46.599Z,27.83
2023-04-22T10:03:46.598Z,27.83
2023-04-22T10:04:46.535Z,27.84
2023-04-22T10:05:46.514Z,27.82
2023-04-22T10:06:46.517Z,27.83
2023-04-22T10:07:46.536Z,27.83
2023-04-22T10:08:46.514Z,27.83
2023-04-22T10:09:46.507Z,27.83
2023-04-22T10:10:46.496Z,27.83
2023-04-22T10:11:46.494Z,27.82
2023-04-22T10:12:46.478Z,27.82
2023-04-22T10:13:46.476Z,27.82
2023-04-22T10:14:46.471Z,27.84
2023-04-22T10:15:46.466Z,27.84
2023-04-22T10:16:46.473Z,27.85
2023-04-22T10:17:46.536Z,27.85
2023-04-22T10:18:46.448Z,27.85
2023-04-22T10:19:46.430Z,27.86
2023-04-22T10:20:46.426Z,27.86
2023-04-22T10:21:46.417Z,27.86
2023-04-22T10:22:46.426Z,27.87
2023-04-22T10:23:46.410Z,27.88
2023-04-22T10:24:46.409Z,27.88
2023-04-22T10:25:46.379Z,27.88
2023-04-22T10:26:46.377Z,27.89
2023-04-22T10:27:46.375Z,27.88
2023-04-22T10:28:46.378Z,27.89
2023-04-22T10:29:46.364Z,27.89
2023-04-22T10:30:46.363Z,27.89
2023-04-22T10:31:46.574Z,27.90
2023-04-22T10:32:46.352Z,27.90
2023-04-22T10:33:46.345Z,27.90
2023-04-22T10:34:46.315Z,27.91
2023-04-22T10:35:46.322Z,27.91
2023-04-22T10:36:46.320Z,27.92
2023-04-22T10:37:46.310Z,27.92
2023-04-22T10:38:46.322Z,27.91
2023-04-22T10:39:46.293Z,27.91
2023-04-22T10:40:46.295Z,27.91
2023-04-22T10:41:46.306Z,27.91
2023-04-22T10:42:46.268Z,27.91
2023-04-22T10:43:46.271Z,27.92
2023-04-22T10:44:46.281Z,27.94
2023-04-22T10:46:46.243Z,27.93
2023-04-22T10:47:46.264Z,27.94
2023-04-22T10:48:46.241Z,27.93
2023-04-22T10:49:46.228Z,27.93
2023-04-22T10:50:46.243Z,27.93
2023-04-22T10:51:46.255Z,27.92
2023-04-22T10:52:46.280Z,27.93
2023-04-22T10:53:46.322Z,27.92
2023-04-22T10:54:46.344Z,27.92
2023-04-22T10:55:46.360Z,27.92
2023-04-22T10:56:51.849Z,27.92
2023-04-22T10:57:47.397Z,27.91
2023-04-22T10:58:46.374Z,27.91
2023-04-22T10:59:46.985Z,27.92
2023-04-22T11:01:47.402Z,27.92
2023-04-22T11:02:46.489Z,27.92
2023-04-22T11:03:46.398Z,27.90
2023-04-22T11:04:46.346Z,27.90
2023-04-22T11:05:46.350Z,27.88
2023-04-22T11:06:46.324Z,27.88
2023-04-22T11:07:46.330Z,27.87
2023-04-22T11:08:46.324Z,27.88
2023-04-22T11:09:46.320Z,27.89
2023-04-22T11:10:46.321Z,27.88
2023-04-22T11:11:46.315Z,27.88
2023-04-22T11:12:46.288Z,27.87
2023-04-22T11:13:46.323Z,27.87
2023-04-22T11:14:46.285Z,27.87
2023-04-22T11:15:46.308Z,27.87
2023-04-22T11:16:46.403Z,27.87
2023-04-22T11:17:46.377Z,27.87
2023-04-22T11:18:46.383Z,27.86
2023-04-22T11:19:46.430Z,27.85
2023-04-22T11:20:46.456Z,27.85
2023-04-22T11:21:46.504Z,27.86
2023-04-22T11:22:46.552Z,27.85
2023-04-22T11:23:46.563Z,27.84
2023-04-22T11:24:46.664Z,27.83
2023-04-22T11:25:46.616Z,27.82
2023-04-22T11:26:46.634Z,27.81
2023-04-22T11:27:46.703Z,27.81
2023-04-22T11:28:46.701Z,27.80
2023-04-22T11:29:46.710Z,27.79
2023-04-22T11:30:46.744Z,27.79
2023-04-22T11:31:46.794Z,27.79
2023-04-22T11:32:46.908Z,27.79
2023-04-22T11:33:49.697Z,27.79
2023-04-22T11:34:46.809Z,27.79
2023-04-22T11:35:47.048Z,27.79
2023-04-22T11:36:46.798Z,27.78
2023-04-22T11:37:46.778Z,27.77
2023-04-22T11:38:46.749Z,27.78
2023-04-22T11:40:07.753Z,27.76
2023-04-22T11:40:48.902Z,27.76
2023-04-22T11:41:46.771Z,27.75
2023-04-22T11:42:46.723Z,27.75
2023-04-22T11:43:46.785Z,27.74
2023-04-22T11:44:46.829Z,27.74
2023-04-22T11:45:46.845Z,27.74
2023-04-22T11:46:46.913Z,27.74
2023-04-22T11:47:47.021Z,27.73
2023-04-22T11:48:46.981Z,27.73
2023-04-22T11:49:46.994Z,27.72
2023-04-22T11:50:47.025Z,27.72
2023-04-22T11:51:47.064Z,27.71
2023-04-22T11:52:47.089Z,27.71
2023-04-22T11:53:47.095Z,27.71
2023-04-22T11:54:47.112Z,27.71
2023-04-22T11:55:47.146Z,27.70
2023-04-22T11:56:47.199Z,27.70
2023-04-22T11:57:47.205Z,27.70
2023-04-22T11:58:47.215Z,27.70
2023-04-22T11:59:47.260Z,27.71
2023-04-22T12:00:47.335Z,27.70
2023-04-22T12:01:47.417Z,27.70
2023-04-22T12:02:47.428Z,27.70
2023-04-22T12:03:47.410Z,27.70
2023-04-22T12:04:47.397Z,27.69
2023-04-22T12:05:47.389Z,27.70
2023-04-22T12:06:47.431Z,27.71
2023-04-22T12:07:47.468Z,27.70
2023-04-22T12:08:47.525Z,27.69
2023-04-22T12:09:47.579Z,27.70
2023-04-22T12:10:47.602Z,27.69
2023-04-22T12:11:47.683Z,27.68
2023-04-22T12:12:47.775Z,27.68
2023-04-22T12:13:47.767Z,27.67
2023-04-22T12:14:47.832Z,27.66
2023-04-22T12:15:47.869Z,27.66
2023-04-22T12:16:47.998Z,27.65
2023-04-22T12:17:48.012Z,27.65
2023-04-22T12:18:47.979Z,27.65
2023-04-22T12:19:48.023Z,27.65
2023-04-22T12:20:48.051Z,27.64
2023-04-22T12:21:48.118Z,27.62
2023-04-22T12:22:48.122Z,27.61
2023-04-22T12:23:48.187Z,27.61
2023-04-22T12:24:48.199Z,27.59
2023-04-22T12:25:48.250Z,27.58
2023-04-22T12:26:48.339Z,27.57
2023-04-22T12:27:48.345Z,27.57
2023-04-22T12:28:48.392Z,27.56
2023-04-22T12:29:48.434Z,27.56
2023-04-22T12:30:48.467Z,27.55
2023-04-22T12:31:48.513Z,27.54
2023-04-22T12:32:48.549Z,27.54
2023-04-22T12:33:48.651Z,27.53
2023-04-22T12:34:48.631Z,27.52
2023-04-22T12:35:48.670Z,27.52
2023-04-22T12:36:48.706Z,27.50
2023-04-22T12:37:50.512Z,27.50
2023-04-22T12:38:48.784Z,27.49
2023-04-22T12:39:48.839Z,27.50
2023-04-22T12:40:48.846Z,27.49
2023-04-22T12:41:48.912Z,27.49
2023-04-22T12:42:48.907Z,27.48
2023-04-22T12:43:48.929Z,27.47
2023-04-22T12:44:48.935Z,27.46
2023-04-22T12:45:48.969Z,27.47
2023-04-22T12:46:49.085Z,27.44
2023-04-22T12:47:49.048Z,27.44
2023-04-22T12:48:49.042Z,27.43
2023-04-22T12:49:49.086Z,27.43
2023-04-22T12:50:49.103Z,27.42
2023-04-22T12:51:49.130Z,27.42
2023-04-22T12:52:49.176Z,27.42
2023-04-22T12:53:49.202Z,27.41
2023-04-22T12:54:49.225Z,27.41